sensor_id;sensor_type;location;lat;lon;timestamp;P1;durP1;ratioP1;P2;durP2;ratioP2
325;SDS011;150;52.352;14.058;2023-07-09T00:01:44;4.57;;;3.50;;
325;SDS011;150;52.352;14.058;2023-07-09T00:04:11;5.50;;;3.47;;
325;SDS011;150;52.352;14.058;2023-07-09T00:06:37;6.78;;;3.67;;
325;SDS011;150;52.352;14.058;2023-07-09T00:09:06;5.50;;;3.60;;
325;SDS011;150;52.352;14.058;2023-07-09T00:11:39;5.18;;;3.90;;
325;SDS011;150;52.352;14.058;2023-07-09T00:14:06;6.78;;;4.10;;
325;SDS011;150;52.352;14.058;2023-07-09T00:16:33;6.10;;;4.50;;
325;SDS011;150;52.352;14.058;2023-07-09T00:19:02;5.35;;;4.07;;
325;SDS011;150;52.352;14.058;2023-07-09T00:21:28;4.07;;;3.50;;
325;SDS011;150;52.352;14.058;2023-07-09T00:23:58;4.80;;;3.60;;
325;SDS011;150;52.352;14.058;2023-07-09T00:26:29;5.30;;;3.80;;
325;SDS011;150;52.352;14.058;2023-07-09T00:28:58;5.18;;;3.58;;
325;SDS011;150;52.352;14.058;2023-07-09T00:31:25;7.78;;;4.28;;
325;SDS011;150;52.352;14.058;2023-07-09T00:33:52;4.50;;;3.42;;
325;SDS011;150;52.352;14.058;2023-07-09T00:36:22;5.68;;;3.65;;
325;SDS011;150;52.352;14.058;2023-07-09T00:38:52;5.30;;;3.80;;
325;SDS011;150;52.352;14.058;2023-07-09T00:41:20;6.93;;;3.70;;
325;SDS011;150;52.352;14.058;2023-07-09T00:43:48;6.18;;;3.47;;
325;SDS011;150;52.352;14.058;2023-07-09T00:49:24;6.13;;;3.83;;
325;SDS011;150;52.352;14.058;2023-07-09T00:51:54;6.80;;;3.72;;
325;SDS011;150;52.352;14.058;2023-07-09T00:54:26;6.20;;;4.00;;
325;SDS011;150;52.352;14.058;2023-07-09T00:56:57;7.57;;;5.28;;
325;SDS011;150;52.352;14.058;2023-07-09T00:59:27;5.18;;;4.30;;
325;SDS011;150;52.352;14.058;2023-07-09T01:01:56;5.80;;;4.90;;
325;SDS011;150;52.352;14.058;2023-07-09T01:04:26;5.80;;;4.05;;
325;SDS011;150;52.352;14.058;2023-07-09T01:06:54;4.50;;;3.97;;
325;SDS011;150;52.352;14.058;2023-07-09T01:09:22;8.10;;;4.82;;
325;SDS011;150;52.352;14.058;2023-07-09T01:11:50;7.00;;;4.72;;
325;SDS011;150;52.352;14.058;2023-07-09T01:14:21;4.45;;;3.75;;
325;SDS011;150;52.352;14.058;2023-07-09T01:16:52;5.47;;;4.50;;
325;SDS011;150;52.352;14.058;2023-07-09T01:19:22;5.15;;;4.10;;
325;SDS011;150;52.352;14.058;2023-07-09T01:21:51;6.13;;;4.13;;
325;SDS011;150;52.352;14.058;2023-07-09T01:27:13;6.03;;;3.90;;
325;SDS011;150;52.352;14.058;2023-07-09T01:29:40;6.40;;;4.60;;
325;SDS011;150;52.352;14.058;2023-07-09T01:32:09;5.38;;;3.78;;
325;SDS011;150;52.352;14.058;2023-07-09T01:34:36;5.75;;;4.82;;
325;SDS011;150;52.352;14.058;2023-07-09T01:37:05;8.07;;;4.33;;
325;SDS011;150;52.352;14.058;2023-07-09T01:39:32;4.87;;;3.90;;
325;SDS011;150;52.352;14.058;2023-07-09T01:42:00;6.55;;;4.00;;
325;SDS011;150;52.352;14.058;2023-07-09T01:44:27;7.50;;;4.23;;
325;SDS011;150;52.352;14.058;2023-07-09T01:46:54;4.30;;;3.85;;
325;SDS011;150;52.352;14.058;2023-07-09T01:49:20;5.22;;;3.90;;
325;SDS011;150;52.352;14.058;2023-07-09T01:51:47;5.05;;;3.75;;
325;SDS011;150;52.352;14.058;2023-07-09T01:54:15;3.85;;;3.22;;
325;SDS011;150;52.352;14.058;2023-07-09T01:56:42;3.53;;;3.30;;
325;SDS011;150;52.352;14.058;2023-07-09T01:59:09;5.47;;;3.90;;
325;SDS011;150;52.352;14.058;2023-07-09T02:01:36;5.25;;;3.80;;
325;SDS011;150;52.352;14.058;2023-07-09T02:04:03;6.32;;;3.75;;
325;SDS011;150;52.352;14.058;2023-07-09T02:06:30;6.20;;;3.90;;
325;SDS011;150;52.352;14.058;2023-07-09T02:08:57;7.38;;;4.30;;
325;SDS011;150;52.352;14.058;2023-07-09T02:11:26;4.30;;;3.75;;
325;SDS011;150;52.352;14.058;2023-07-09T02:13:52;3.88;;;2.97;;
325;SDS011;150;52.352;14.058;2023-07-09T02:16:19;3.42;;;3.22;;
325;SDS011;150;52.352;14.058;2023-07-09T02:18:46;3.60;;;3.47;;
325;SDS011;150;52.352;14.058;2023-07-09T02:21:12;4.60;;;3.50;;
325;SDS011;150;52.352;14.058;2023-07-09T02:23:39;5.82;;;4.20;;
325;SDS011;150;52.352;14.058;2023-07-09T02:26:06;4.25;;;3.70;;
325;SDS011;150;52.352;14.058;2023-07-09T02:28:34;4.32;;;3.42;;
325;SDS011;150;52.352;14.058;2023-07-09T02:31:00;4.50;;;3.60;;
325;SDS011;150;52.352;14.058;2023-07-09T02:33:27;4.75;;;3.95;;
325;SDS011;150;52.352;14.058;2023-07-09T02:35:58;4.05;;;3.40;;
325;SDS011;150;52.352;14.058;2023-07-09T02:38:24;7.75;;;3.50;;
325;SDS011;150;52.352;14.058;2023-07-09T02:40:51;4.88;;;3.88;;
325;SDS011;150;52.352;14.058;2023-07-09T02:43:18;4.20;;;3.50;;
325;SDS011;150;52.352;14.058;2023-07-09T02:45:46;4.25;;;3.58;;
325;SDS011;150;52.352;14.058;2023-07-09T02:48:13;4.20;;;3.60;;
325;SDS011;150;52.352;14.058;2023-07-09T02:50:39;5.28;;;3.83;;
325;SDS011;150;52.352;14.058;2023-07-09T02:53:06;5.68;;;4.03;;
325;SDS011;150;52.352;14.058;2023-07-09T02:55:33;3.80;;;3.20;;
325;SDS011;150;52.352;14.058;2023-07-09T02:58:00;7.10;;;4.15;;
325;SDS011;150;52.352;14.058;2023-07-09T03:00:27;4.47;;;3.17;;
325;SDS011;150;52.352;14.058;2023-07-09T03:02:55;4.45;;;3.90;;
325;SDS011;150;52.352;14.058;2023-07-09T03:05:21;4.10;;;3.40;;
325;SDS011;150;52.352;14.058;2023-07-09T03:07:48;3.88;;;3.67;;
325;SDS011;150;52.352;14.058;2023-07-09T03:10:15;5.38;;;3.70;;
325;SDS011;150;52.352;14.058;2023-07-09T03:12:42;6.15;;;4.55;;
325;SDS011;150;52.352;14.058;2023-07-09T03:15:09;5.70;;;4.45;;
325;SDS011;150;52.352;14.058;2023-07-09T03:17:35;5.18;;;4.10;;
325;SDS011;150;52.352;14.058;2023-07-09T03:20:04;4.93;;;4.20;;
325;SDS011;150;52.352;14.058;2023-07-09T03:22:32;5.22;;;4.85;;
325;SDS011;150;52.352;14.058;2023-07-09T03:24:59;5.35;;;5.05;;
325;SDS011;150;52.352;14.058;2023-07-09T03:27:26;6.65;;;4.97;;
325;SDS011;150;52.352;14.058;2023-07-09T03:29:53;6.95;;;4.97;;
325;SDS011;150;52.352;14.058;2023-07-09T03:32:19;5.18;;;4.70;;
325;SDS011;150;52.352;14.058;2023-07-09T03:34:46;4.90;;;4.68;;
325;SDS011;150;52.352;14.058;2023-07-09T03:37:14;8.07;;;5.68;;
325;SDS011;150;52.352;14.058;2023-07-09T03:39:40;5.70;;;5.43;;
325;SDS011;150;52.352;14.058;2023-07-09T03:42:07;6.40;;;5.30;;
325;SDS011;150;52.352;14.058;2023-07-09T03:44:34;6.63;;;4.90;;
325;SDS011;150;52.352;14.058;2023-07-09T03:47:01;5.18;;;4.88;;
325;SDS011;150;52.352;14.058;2023-07-09T03:49:27;6.47;;;5.18;;
325;SDS011;150;52.352;14.058;2023-07-09T03:51:54;5.03;;;4.75;;
325;SDS011;150;52.352;14.058;2023-07-09T03:54:22;5.83;;;4.80;;
325;SDS011;150;52.352;14.058;2023-07-09T03:56:49;5.83;;;5.20;;
325;SDS011;150;52.352;14.058;2023-07-09T03:59:15;7.07;;;5.50;;
325;SDS011;150;52.352;14.058;2023-07-09T04:01:42;8.73;;;5.82;;
325;SDS011;150;52.352;14.058;2023-07-09T04:04:11;8.52;;;6.28;;
325;SDS011;150;52.352;14.058;2023-07-09T04:06:37;8.70;;;6.00;;
325;SDS011;150;52.352;14.058;2023-07-09T04:09:04;7.07;;;5.65;;
325;SDS011;150;52.352;14.058;2023-07-09T04:11:32;7.38;;;5.30;;
325;SDS011;150;52.352;14.058;2023-07-09T04:13:59;6.07;;;4.90;;
325;SDS011;150;52.352;14.058;2023-07-09T04:16:25;6.40;;;4.70;;
325;SDS011;150;52.352;14.058;2023-07-09T04:18:52;6.00;;;4.10;;
325;SDS011;150;52.352;14.058;2023-07-09T04:21:19;5.85;;;4.10;;
325;SDS011;150;52.352;14.058;2023-07-09T04:23:46;4.40;;;3.38;;
325;SDS011;150;52.352;14.058;2023-07-09T04:26:12;4.15;;;3.35;;
325;SDS011;150;52.352;14.058;2023-07-09T04:28:41;4.40;;;3.42;;
325;SDS011;150;52.352;14.058;2023-07-09T04:31:08;5.45;;;3.42;;
325;SDS011;150;52.352;14.058;2023-07-09T04:33:35;4.03;;;2.97;;
325;SDS011;150;52.352;14.058;2023-07-09T04:36:02;5.30;;;3.40;;
325;SDS011;150;52.352;14.058;2023-07-09T04:38:31;6.90;;;3.28;;
325;SDS011;150;52.352;14.058;2023-07-09T04:40:58;4.70;;;3.60;;
325;SDS011;150;52.352;14.058;2023-07-09T04:43:24;5.57;;;3.78;;
325;SDS011;150;52.352;14.058;2023-07-09T04:45:52;4.78;;;3.40;;
325;SDS011;150;52.352;14.058;2023-07-09T04:48:19;5.20;;;3.20;;
325;SDS011;150;52.352;14.058;2023-07-09T04:50:46;4.40;;;3.03;;
325;SDS011;150;52.352;14.058;2023-07-09T04:53:18;4.05;;;3.22;;
325;SDS011;150;52.352;14.058;2023-07-09T04:55:44;4.30;;;3.30;;
325;SDS011;150;52.352;14.058;2023-07-09T04:58:11;5.43;;;3.10;;
325;SDS011;150;52.352;14.058;2023-07-09T05:00:38;3.35;;;2.65;;
325;SDS011;150;52.352;14.058;2023-07-09T05:03:06;5.28;;;3.00;;
325;SDS011;150;52.352;14.058;2023-07-09T05:05:32;4.22;;;2.90;;
325;SDS011;150;52.352;14.058;2023-07-09T05:07:59;4.80;;;3.40;;
325;SDS011;150;52.352;14.058;2023-07-09T05:10:26;3.92;;;2.90;;
325;SDS011;150;52.352;14.058;2023-07-09T05:12:53;3.97;;;2.87;;
325;SDS011;150;52.352;14.058;2023-07-09T05:15:21;5.00;;;3.40;;
325;SDS011;150;52.352;14.058;2023-07-09T05:17:48;3.75;;;2.85;;
325;SDS011;150;52.352;14.058;2023-07-09T05:20:16;6.10;;;3.35;;
325;SDS011;150;52.352;14.058;2023-07-09T05:22:43;3.90;;;3.13;;
325;SDS011;150;52.352;14.058;2023-07-09T05:25:10;4.50;;;3.67;;
325;SDS011;150;52.352;14.058;2023-07-09T05:27:37;3.70;;;3.20;;
325;SDS011;150;52.352;14.058;2023-07-09T05:30:04;3.42;;;2.70;;
325;SDS011;150;52.352;14.058;2023-07-09T05:32:31;9.00;;;3.90;;
325;SDS011;150;52.352;14.058;2023-07-09T05:34:58;4.20;;;3.35;;
325;SDS011;150;52.352;14.058;2023-07-09T05:37:26;4.72;;;3.20;;
325;SDS011;150;52.352;14.058;2023-07-09T05:39:53;4.30;;;3.40;;
325;SDS011;150;52.352;14.058;2023-07-09T05:42:19;4.30;;;3.80;;
325;SDS011;150;52.352;14.058;2023-07-09T05:44:46;5.45;;;3.83;;
325;SDS011;150;52.352;14.058;2023-07-09T05:47:13;6.17;;;3.60;;
325;SDS011;150;52.352;14.058;2023-07-09T05:49:40;4.10;;;3.20;;
325;SDS011;150;52.352;14.058;2023-07-09T05:52:06;6.05;;;3.88;;
325;SDS011;150;52.352;14.058;2023-07-09T05:54:35;4.40;;;3.33;;
325;SDS011;150;52.352;14.058;2023-07-09T05:57:01;6.60;;;3.00;;
325;SDS011;150;52.352;14.058;2023-07-09T05:59:28;3.60;;;3.30;;
325;SDS011;150;52.352;14.058;2023-07-09T06:01:54;4.70;;;3.10;;
325;SDS011;150;52.352;14.058;2023-07-09T06:04:21;4.78;;;2.85;;
325;SDS011;150;52.352;14.058;2023-07-09T06:06:50;5.50;;;2.92;;
325;SDS011;150;52.352;14.058;2023-07-09T06:09:16;4.18;;;3.40;;
325;SDS011;150;52.352;14.058;2023-07-09T06:11:45;4.10;;;3.25;;
325;SDS011;150;52.352;14.058;2023-07-09T06:14:11;4.68;;;3.60;;
325;SDS011;150;52.352;14.058;2023-07-09T06:16:38;5.00;;;3.35;;
325;SDS011;150;52.352;14.058;2023-07-09T06:19:04;3.70;;;3.50;;
325;SDS011;150;52.352;14.058;2023-07-09T06:21:31;3.95;;;2.92;;
325;SDS011;150;52.352;14.058;2023-07-09T06:23:57;4.20;;;3.40;;
325;SDS011;150;52.352;14.058;2023-07-09T06:26:24;4.63;;;3.30;;
325;SDS011;150;52.352;14.058;2023-07-09T06:28:52;5.63;;;3.63;;
325;SDS011;150;52.352;14.058;2023-07-09T06:31:19;4.20;;;3.40;;
325;SDS011;150;52.352;14.058;2023-07-09T06:33:46;4.20;;;3.30;;
325;SDS011;150;52.352;14.058;2023-07-09T06:36:13;4.75;;;3.35;;
325;SDS011;150;52.352;14.058;2023-07-09T06:38:40;3.85;;;3.45;;
325;SDS011;150;52.352;14.058;2023-07-09T06:41:06;4.30;;;3.08;;
325;SDS011;150;52.352;14.058;2023-07-09T06:43:33;4.20;;;3.22;;
325;SDS011;150;52.352;14.058;2023-07-09T06:46:05;5.50;;;3.50;;
325;SDS011;150;52.352;14.058;2023-07-09T06:48:33;4.50;;;3.40;;
325;SDS011;150;52.352;14.058;2023-07-09T06:51:00;4.90;;;3.92;;
325;SDS011;150;52.352;14.058;2023-07-09T06:53:27;4.68;;;3.47;;
325;SDS011;150;52.352;14.058;2023-07-09T06:55:55;4.40;;;3.80;;
325;SDS011;150;52.352;14.058;2023-07-09T06:58:29;5.18;;;3.72;;
325;SDS011;150;52.352;14.058;2023-07-09T07:01:00;5.05;;;2.92;;
325;SDS011;150;52.352;14.058;2023-07-09T07:03:30;4.15;;;3.45;;
325;SDS011;150;52.352;14.058;2023-07-09T07:05:58;4.30;;;3.38;;
325;SDS011;150;52.352;14.058;2023-07-09T07:08:30;3.55;;;3.15;;
325;SDS011;150;52.352;14.058;2023-07-09T07:11:00;4.30;;;3.20;;
325;SDS011;150;52.352;14.058;2023-07-09T07:13:28;4.70;;;3.63;;
325;SDS011;150;52.352;14.058;2023-07-09T07:15:57;4.20;;;3.55;;
325;SDS011;150;52.352;14.058;2023-07-09T07:18:26;5.47;;;3.30;;
325;SDS011;150;52.352;14.058;2023-07-09T07:20:56;4.88;;;4.20;;
325;SDS011;150;52.352;14.058;2023-07-09T07:23:26;4.47;;;3.90;;
325;SDS011;150;52.352;14.058;2023-07-09T07:25:55;4.07;;;3.28;;
325;SDS011;150;52.352;14.058;2023-07-09T07:28:21;3.30;;;3.13;;
325;SDS011;150;52.352;14.058;2023-07-09T07:30:57;4.93;;;3.60;;
325;SDS011;150;52.352;14.058;2023-07-09T07:33:24;4.85;;;3.55;;
325;SDS011;150;52.352;14.058;2023-07-09T07:35:58;3.95;;;3.38;;
325;SDS011;150;52.352;14.058;2023-07-09T07:38:31;4.97;;;3.30;;
325;SDS011;150;52.352;14.058;2023-07-09T07:41:14;5.20;;;3.65;;
325;SDS011;150;52.352;14.058;2023-07-09T07:43:47;4.20;;;3.70;;
325;SDS011;150;52.352;14.058;2023-07-09T07:46:18;4.90;;;3.70;;
325;SDS011;150;52.352;14.058;2023-07-09T07:48:49;4.67;;;3.80;;
325;SDS011;150;52.352;14.058;2023-07-09T07:51:32;3.28;;;3.05;;
325;SDS011;150;52.352;14.058;2023-07-09T07:54:00;5.57;;;3.53;;
325;SDS011;150;52.352;14.058;2023-07-09T07:56:29;5.95;;;3.38;;
325;SDS011;150;52.352;14.058;2023-07-09T07:58:56;4.75;;;3.75;;
325;SDS011;150;52.352;14.058;2023-07-09T08:01:22;4.05;;;3.30;;
325;SDS011;150;52.352;14.058;2023-07-09T08:03:52;4.50;;;3.90;;
325;SDS011;150;52.352;14.058;2023-07-09T08:06:20;4.90;;;3.55;;
325;SDS011;150;52.352;14.058;2023-07-09T08:08:48;4.93;;;3.63;;
325;SDS011;150;52.352;14.058;2023-07-09T08:11:15;4.13;;;3.55;;
325;SDS011;150;52.352;14.058;2023-07-09T08:13:48;4.28;;;3.60;;
325;SDS011;150;52.352;14.058;2023-07-09T08:16:14;4.13;;;3.25;;
325;SDS011;150;52.352;14.058;2023-07-09T08:18:44;4.93;;;3.85;;
325;SDS011;150;52.352;14.058;2023-07-09T08:21:21;3.88;;;3.17;;
325;SDS011;150;52.352;14.058;2023-07-09T08:23:49;4.25;;;3.40;;
325;SDS011;150;52.352;14.058;2023-07-09T08:26:15;5.70;;;3.87;;
325;SDS011;150;52.352;14.058;2023-07-09T08:28:42;5.18;;;3.50;;
325;SDS011;150;52.352;14.058;2023-07-09T08:31:09;8.15;;;5.82;;
325;SDS011;150;52.352;14.058;2023-07-09T08:33:59;3.70;;;3.47;;
325;SDS011;150;52.352;14.058;2023-07-09T08:36:33;5.13;;;3.97;;
325;SDS011;150;52.352;14.058;2023-07-09T08:39:16;3.60;;;3.33;;
325;SDS011;150;52.352;14.058;2023-07-09T08:48:12;4.43;;;3.47;;
325;SDS011;150;52.352;14.058;2023-07-09T08:53:48;4.65;;;3.63;;
325;SDS011;150;52.352;14.058;2023-07-09T08:56:30;4.63;;;3.17;;
325;SDS011;150;52.352;14.058;2023-07-09T08:59:05;3.60;;;3.00;;
325;SDS011;150;52.352;14.058;2023-07-09T09:01:46;5.97;;;3.45;;
325;SDS011;150;52.352;14.058;2023-07-09T09:04:27;4.57;;;3.50;;
325;SDS011;150;52.352;14.058;2023-07-09T09:07:28;4.03;;;3.00;;
325;SDS011;150;52.352;14.058;2023-07-09T09:10:14;5.20;;;2.92;;
325;SDS011;150;52.352;14.058;2023-07-09T09:13:13;5.93;;;3.00;;
325;SDS011;150;52.352;14.058;2023-07-09T09:16:22;5.10;;;3.40;;
325;SDS011;150;52.352;14.058;2023-07-09T09:19:20;3.10;;;2.80;;
325;SDS011;150;52.352;14.058;2023-07-09T09:22:23;4.30;;;3.10;;
325;SDS011;150;52.352;14.058;2023-07-09T09:25:23;4.00;;;2.78;;
325;SDS011;150;52.352;14.058;2023-07-09T09:28:11;7.45;;;4.75;;
325;SDS011;150;52.352;14.058;2023-07-09T09:33:50;3.58;;;2.50;;
325;SDS011;150;52.352;14.058;2023-07-09T09:36:41;8.25;;;3.58;;
325;SDS011;150;52.352;14.058;2023-07-09T09:39:38;4.47;;;3.38;;
325;SDS011;150;52.352;14.058;2023-07-09T09:42:58;4.00;;;3.10;;
325;SDS011;150;52.352;14.058;2023-07-09T09:45:31;3.77;;;2.80;;
325;SDS011;150;52.352;14.058;2023-07-09T09:48:16;3.63;;;2.58;;
325;SDS011;150;52.352;14.058;2023-07-09T09:50:57;4.30;;;2.90;;
325;SDS011;150;52.352;14.058;2023-07-09T09:57:13;4.00;;;2.33;;
325;SDS011;150;52.352;14.058;2023-07-09T10:00:22;3.92;;;2.65;;
325;SDS011;150;52.352;14.058;2023-07-09T10:03:50;3.03;;;2.50;;
325;SDS011;150;52.352;14.058;2023-07-09T10:07:07;3.65;;;2.40;;
325;SDS011;150;52.352;14.058;2023-07-09T10:09:49;4.25;;;2.60;;
325;SDS011;150;52.352;14.058;2023-07-09T10:12:47;3.45;;;2.40;;
325;SDS011;150;52.352;14.058;2023-07-09T10:15:24;3.45;;;2.63;;
325;SDS011;150;52.352;14.058;2023-07-09T10:18:28;3.58;;;2.78;;
325;SDS011;150;52.352;14.058;2023-07-09T10:21:25;4.32;;;2.53;;
325;SDS011;150;52.352;14.058;2023-07-09T10:24:44;4.80;;;3.23;;
325;SDS011;150;52.352;14.058;2023-07-09T10:27:25;4.40;;;2.55;;
325;SDS011;150;52.352;14.058;2023-07-09T10:31:00;5.60;;;2.95;;
325;SDS011;150;52.352;14.058;2023-07-09T10:34:01;4.38;;;2.55;;
325;SDS011;150;52.352;14.058;2023-07-09T10:40:02;5.00;;;2.78;;
325;SDS011;150;52.352;14.058;2023-07-09T10:42:46;4.30;;;2.70;;
325;SDS011;150;52.352;14.058;2023-07-09T10:45:31;3.20;;;2.50;;
325;SDS011;150;52.352;14.058;2023-07-09T10:48:20;4.20;;;3.10;;
325;SDS011;150;52.352;14.058;2023-07-09T10:50:59;3.45;;;2.80;;
325;SDS011;150;52.352;14.058;2023-07-09T10:53:36;4.97;;;3.00;;
325;SDS011;150;52.352;14.058;2023-07-09T10:56:43;4.82;;;2.90;;
325;SDS011;150;52.352;14.058;2023-07-09T10:59:31;3.42;;;3.20;;
325;SDS011;150;52.352;14.058;2023-07-09T11:02:15;6.10;;;4.20;;
325;SDS011;150;52.352;14.058;2023-07-09T11:04:58;4.00;;;2.92;;
325;SDS011;150;52.352;14.058;2023-07-09T11:08:11;4.78;;;2.70;;
325;SDS011;150;52.352;14.058;2023-07-09T11:10:59;4.50;;;3.20;;
325;SDS011;150;52.352;14.058;2023-07-09T11:13:47;3.72;;;2.90;;
325;SDS011;150;52.352;14.058;2023-07-09T11:16:20;4.03;;;3.10;;
325;SDS011;150;52.352;14.058;2023-07-09T11:18:54;4.20;;;3.08;;
325;SDS011;150;52.352;14.058;2023-07-09T11:21:23;4.32;;;2.83;;
325;SDS011;150;52.352;14.058;2023-07-09T11:23:51;4.03;;;2.92;;
325;SDS011;150;52.352;14.058;2023-07-09T11:26:23;3.60;;;2.60;;
325;SDS011;150;52.352;14.058;2023-07-09T11:28:52;3.30;;;2.80;;
325;SDS011;150;52.352;14.058;2023-07-09T11:31:21;3.67;;;3.10;;
325;SDS011;150;52.352;14.058;2023-07-09T11:34:07;3.53;;;2.33;;
325;SDS011;150;52.352;14.058;2023-07-09T11:36:48;4.20;;;2.97;;
325;SDS011;150;52.352;14.058;2023-07-09T11:39:17;3.33;;;2.60;;
325;SDS011;150;52.352;14.058;2023-07-09T11:41:48;3.33;;;2.80;;
325;SDS011;150;52.352;14.058;2023-07-09T11:44:16;3.28;;;2.80;;
325;SDS011;150;52.352;14.058;2023-07-09T11:46:50;4.50;;;2.92;;
325;SDS011;150;52.352;14.058;2023-07-09T11:49:30;5.32;;;2.90;;
325;SDS011;150;52.352;14.058;2023-07-09T11:52:02;4.60;;;2.90;;
325;SDS011;150;52.352;14.058;2023-07-09T11:54:33;6.00;;;3.03;;
325;SDS011;150;52.352;14.058;2023-07-09T11:57:00;4.70;;;2.97;;
325;SDS011;150;52.352;14.058;2023-07-09T11:59:28;3.97;;;2.97;;
325;SDS011;150;52.352;14.058;2023-07-09T12:01:55;3.38;;;2.85;;
325;SDS011;150;52.352;14.058;2023-07-09T12:04:27;3.83;;;2.95;;
325;SDS011;150;52.352;14.058;2023-07-09T12:07:00;4.00;;;3.00;;
325;SDS011;150;52.352;14.058;2023-07-09T12:09:29;6.05;;;3.38;;
325;SDS011;150;52.352;14.058;2023-07-09T12:11:58;4.15;;;3.00;;
325;SDS011;150;52.352;14.058;2023-07-09T12:14:25;4.93;;;2.90;;
325;SDS011;150;52.352;14.058;2023-07-09T12:16:52;4.38;;;2.92;;
325;SDS011;150;52.352;14.058;2023-07-09T12:19:20;4.77;;;3.27;;
325;SDS011;150;52.352;14.058;2023-07-09T12:21:50;4.20;;;2.90;;
325;SDS011;150;52.352;14.058;2023-07-09T12:24:38;4.85;;;3.17;;
325;SDS011;150;52.352;14.058;2023-07-09T12:27:17;5.97;;;2.88;;
325;SDS011;150;52.352;14.058;2023-07-09T12:29:45;4.37;;;3.00;;
325;SDS011;150;52.352;14.058;2023-07-09T12:32:15;4.93;;;3.00;;
325;SDS011;150;52.352;14.058;2023-07-09T12:34:46;5.93;;;3.22;;
325;SDS011;150;52.352;14.058;2023-07-09T12:37:15;4.50;;;2.90;;
325;SDS011;150;52.352;14.058;2023-07-09T12:39:50;5.53;;;3.10;;
325;SDS011;150;52.352;14.058;2023-07-09T12:42:28;4.70;;;3.30;;
325;SDS011;150;52.352;14.058;2023-07-09T12:44:59;3.60;;;2.92;;
325;SDS011;150;52.352;14.058;2023-07-09T12:47:59;4.13;;;2.80;;
325;SDS011;150;52.352;14.058;2023-07-09T12:50:41;5.80;;;3.70;;
325;SDS011;150;52.352;14.058;2023-07-09T12:53:18;4.30;;;3.40;;
325;SDS011;150;52.352;14.058;2023-07-09T12:55:48;3.70;;;2.80;;
325;SDS011;150;52.352;14.058;2023-07-09T12:58:17;4.00;;;3.03;;
325;SDS011;150;52.352;14.058;2023-07-09T13:00:47;4.80;;;3.28;;
325;SDS011;150;52.352;14.058;2023-07-09T13:03:33;9.07;;;8.33;;
325;SDS011;150;52.352;14.058;2023-07-09T13:06:02;5.30;;;3.10;;
325;SDS011;150;52.352;14.058;2023-07-09T13:08:42;4.00;;;3.00;;
325;SDS011;150;52.352;14.058;2023-07-09T13:11:31;3.40;;;2.50;;
325;SDS011;150;52.352;14.058;2023-07-09T13:14:02;3.35;;;2.67;;
325;SDS011;150;52.352;14.058;2023-07-09T13:16:39;4.03;;;3.05;;
325;SDS011;150;52.352;14.058;2023-07-09T13:19:35;5.22;;;3.13;;
325;SDS011;150;52.352;14.058;2023-07-09T13:22:05;3.47;;;2.65;;
325;SDS011;150;52.352;14.058;2023-07-09T13:24:36;4.20;;;3.00;;
325;SDS011;150;52.352;14.058;2023-07-09T13:31:44;3.50;;;3.10;;
325;SDS011;150;52.352;14.058;2023-07-09T13:34:16;3.90;;;3.10;;
325;SDS011;150;52.352;14.058;2023-07-09T13:36:46;13.07;;;3.50;;
325;SDS011;150;52.352;14.058;2023-07-09T13:39:13;3.70;;;2.70;;
325;SDS011;150;52.352;14.058;2023-07-09T13:41:42;5.28;;;3.20;;
325;SDS011;150;52.352;14.058;2023-07-09T13:44:22;3.92;;;3.17;;
325;SDS011;150;52.352;14.058;2023-07-09T13:46:56;3.60;;;2.80;;
325;SDS011;150;52.352;14.058;2023-07-09T13:49:24;4.17;;;3.40;;
325;SDS011;150;52.352;14.058;2023-07-09T13:51:53;3.80;;;3.20;;
325;SDS011;150;52.352;14.058;2023-07-09T13:54:22;4.95;;;3.40;;
325;SDS011;150;52.352;14.058;2023-07-09T13:56:50;6.63;;;3.60;;
325;SDS011;150;52.352;14.058;2023-07-09T13:59:18;4.50;;;3.20;;
325;SDS011;150;52.352;14.058;2023-07-09T14:01:51;3.28;;;2.95;;
325;SDS011;150;52.352;14.058;2023-07-09T14:04:21;4.28;;;3.22;;
325;SDS011;150;52.352;14.058;2023-07-09T14:06:47;3.35;;;2.90;;
325;SDS011;150;52.352;14.058;2023-07-09T14:09:14;3.90;;;3.20;;
325;SDS011;150;52.352;14.058;2023-07-09T14:11:43;5.47;;;3.60;;
325;SDS011;150;52.352;14.058;2023-07-09T14:14:15;4.80;;;3.22;;
325;SDS011;150;52.352;14.058;2023-07-09T14:16:44;9.00;;;3.60;;
325;SDS011;150;52.352;14.058;2023-07-09T14:19:14;4.40;;;2.83;;
325;SDS011;150;52.352;14.058;2023-07-09T14:21:41;4.57;;;3.20;;
325;SDS011;150;52.352;14.058;2023-07-09T14:24:14;3.95;;;3.03;;
325;SDS011;150;52.352;14.058;2023-07-09T14:26:45;4.20;;;3.15;;
325;SDS011;150;52.352;14.058;2023-07-09T14:29:12;4.75;;;3.40;;
325;SDS011;150;52.352;14.058;2023-07-09T14:31:40;5.75;;;3.35;;
325;SDS011;150;52.352;14.058;2023-07-09T14:34:16;4.00;;;2.72;;
325;SDS011;150;52.352;14.058;2023-07-09T14:36:46;4.05;;;2.90;;
325;SDS011;150;52.352;14.058;2023-07-09T14:39:15;3.90;;;2.83;;
325;SDS011;150;52.352;14.058;2023-07-09T14:41:42;3.78;;;2.80;;
325;SDS011;150;52.352;14.058;2023-07-09T14:44:15;4.25;;;3.00;;
325;SDS011;150;52.352;14.058;2023-07-09T14:46:47;3.73;;;3.03;;
325;SDS011;150;52.352;14.058;2023-07-09T14:49:15;4.20;;;2.80;;
325;SDS011;150;52.352;14.058;2023-07-09T14:51:42;4.95;;;2.90;;
325;SDS011;150;52.352;14.058;2023-07-09T14:54:17;4.75;;;2.75;;
325;SDS011;150;52.352;14.058;2023-07-09T14:56:50;4.43;;;2.90;;
325;SDS011;150;52.352;14.058;2023-07-09T14:59:46;4.67;;;3.23;;
325;SDS011;150;52.352;14.058;2023-07-09T15:02:20;3.70;;;3.00;;
325;SDS011;150;52.352;14.058;2023-07-09T15:04:50;4.35;;;3.22;;
325;SDS011;150;52.352;14.058;2023-07-09T15:07:17;4.13;;;3.10;;
325;SDS011;150;52.352;14.058;2023-07-09T15:09:44;3.57;;;2.70;;
325;SDS011;150;52.352;14.058;2023-07-09T15:12:16;3.95;;;2.80;;
325;SDS011;150;52.352;14.058;2023-07-09T15:14:46;3.60;;;2.80;;
325;SDS011;150;52.352;14.058;2023-07-09T15:17:16;4.40;;;3.50;;
325;SDS011;150;52.352;14.058;2023-07-09T15:19:42;4.20;;;3.28;;
325;SDS011;150;52.352;14.058;2023-07-09T15:22:16;4.70;;;3.40;;
325;SDS011;150;52.352;14.058;2023-07-09T15:24:53;3.80;;;3.13;;
325;SDS011;150;52.352;14.058;2023-07-09T15:27:19;4.28;;;3.28;;
325;SDS011;150;52.352;14.058;2023-07-09T15:29:49;6.10;;;3.40;;
325;SDS011;150;52.352;14.058;2023-07-09T15:32:17;5.03;;;3.53;;
325;SDS011;150;52.352;14.058;2023-07-09T15:34:43;6.28;;;3.22;;
325;SDS011;150;52.352;14.058;2023-07-09T15:37:11;3.80;;;2.92;;
325;SDS011;150;52.352;14.058;2023-07-09T15:39:41;3.85;;;2.88;;
325;SDS011;150;52.352;14.058;2023-07-09T15:42:11;5.45;;;3.30;;
325;SDS011;150;52.352;14.058;2023-07-09T15:44:39;11.15;;;3.60;;
325;SDS011;150;52.352;14.058;2023-07-09T15:47:08;5.80;;;3.10;;
325;SDS011;150;52.352;14.058;2023-07-09T15:49:43;4.00;;;2.92;;
325;SDS011;150;52.352;14.058;2023-07-09T15:52:12;6.10;;;3.40;;
325;SDS011;150;52.352;14.058;2023-07-09T15:54:48;4.40;;;2.95;;
325;SDS011;150;52.352;14.058;2023-07-09T15:57:15;5.50;;;3.00;;
325;SDS011;150;52.352;14.058;2023-07-09T15:59:42;3.30;;;2.50;;
325;SDS011;150;52.352;14.058;2023-07-09T16:02:10;3.80;;;3.00;;
325;SDS011;150;52.352;14.058;2023-07-09T16:04:41;4.57;;;2.97;;
325;SDS011;150;52.352;14.058;2023-07-09T16:07:09;4.82;;;3.17;;
325;SDS011;150;52.352;14.058;2023-07-09T16:09:36;3.40;;;2.67;;
325;SDS011;150;52.352;14.058;2023-07-09T16:12:07;4.70;;;3.40;;
325;SDS011;150;52.352;14.058;2023-07-09T16:14:38;5.07;;;3.20;;
325;SDS011;150;52.352;14.058;2023-07-09T16:17:08;4.38;;;2.90;;
325;SDS011;150;52.352;14.058;2023-07-09T16:19:39;3.97;;;2.80;;
325;SDS011;150;52.352;14.058;2023-07-09T16:22:06;5.03;;;2.83;;
325;SDS011;150;52.352;14.058;2023-07-09T16:24:34;3.60;;;3.20;;
325;SDS011;150;52.352;14.058;2023-07-09T16:27:02;4.47;;;3.35;;
325;SDS011;150;52.352;14.058;2023-07-09T16:29:33;3.95;;;2.90;;
325;SDS011;150;52.352;14.058;2023-07-09T16:32:00;4.40;;;3.33;;